sensor_id;sensor_type;location;lat;lon;timestamp;pressure;altitude;pressure_sealevel;temperature;humidity
20628;BME280;10473;42.734;24.258;2023-03-14T00:02:18;92059.06;;;2.11;57.42
20628;BME280;10473;42.734;24.258;2023-03-14T00:04:46;92051.50;;;2.27;56.84
20628;BME280;10473;42.734;24.258;2023-03-14T00:07:15;92040.78;;;2.20;57.32
20628;BME280;10473;42.734;24.258;2023-03-14T00:09:43;92036.94;;;2.00;58.07
20628;BME280;10473;42.734;24.258;2023-03-14T00:12:10;92042.16;;;2.08;56.95
20628;BME280;10473;42.734;24.258;2023-03-14T00:14:40;92039.88;;;2.07;57.18
20628;BME280;10473;42.734;24.258;2023-03-14T00:17:10;92036.31;;;2.12;57.19
20628;BME280;10473;42.734;24.258;2023-03-14T00:19:37;92036.28;;;2.20;57.32
20628;BME280;10473;42.734;24.258;2023-03-14T00:22:05;92015.09;;;2.13;57.17
20628;BME280;10473;42.734;24.258;2023-03-14T00:24:34;92022.44;;;2.28;56.93
20628;BME280;10473;42.734;24.258;2023-03-14T00:27:02;92025.97;;;2.23;57.16
20628;BME280;10473;42.734;24.258;2023-03-14T00:29:29;92024.28;;;2.28;56.57
20628;BME280;10473;42.734;24.258;2023-03-14T00:31:57;92020.75;;;2.32;56.49
20628;BME280;10473;42.734;24.258;2023-03-14T00:34:28;92026.75;;;2.24;56.41
20628;BME280;10473;42.734;24.258;2023-03-14T00:36:56;92021.34;;;2.38;56.28
20628;BME280;10473;42.734;24.258;2023-03-14T00:39:24;92015.84;;;2.31;56.92
20628;BME280;10473;42.734;24.258;2023-03-14T00:41:53;91997.41;;;2.18;57.03
20628;BME280;10473;42.734;24.258;2023-03-14T00:44:22;92000.75;;;2.28;56.42
20628;BME280;10473;42.734;24.258;2023-03-14T00:46:49;91997.06;;;2.28;56.26
20628;BME280;10473;42.734;24.258;2023-03-14T00:49:17;91998.66;;;2.13;57.48
20628;BME280;10473;42.734;24.258;2023-03-14T00:51:45;91989.78;;;1.97;58.02
20628;BME280;10473;42.734;24.258;2023-03-14T00:54:13;91993.00;;;2.02;57.91
20628;BME280;10473;42.734;24.258;2023-03-14T00:56:40;91986.25;;;1.84;58.29
20628;BME280;10473;42.734;24.258;2023-03-14T00:59:09;91980.41;;;1.87;58.67
20628;BME280;10473;42.734;24.258;2023-03-14T01:01:38;91971.19;;;1.89;58.57
20628;BME280;10473;42.734;24.258;2023-03-14T01:04:08;91971.34;;;1.84;58.31
20628;BME280;10473;42.734;24.258;2023-03-14T01:06:35;91968.88;;;1.79;58.89
20628;BME280;10473;42.734;24.258;2023-03-14T01:09:03;91967.50;;;1.91;58.46
20628;BME280;10473;42.734;24.258;2023-03-14T01:11:32;91967.97;;;1.84;58.88
20628;BME280;10473;42.734;24.258;2023-03-14T01:14:01;91960.44;;;1.91;58.30
20628;BME280;10473;42.734;24.258;2023-03-14T01:16:34;91957.38;;;1.89;57.89
20628;BME280;10473;42.734;24.258;2023-03-14T01:19:02;91949.84;;;1.88;58.32
20628;BME280;10473;42.734;24.258;2023-03-14T01:21:32;91944.75;;;1.91;58.09
20628;BME280;10473;42.734;24.258;2023-03-14T01:24:03;91943.69;;;2.01;58.15
20628;BME280;10473;42.734;24.258;2023-03-14T01:26:33;91935.16;;;1.58;59.54
20628;BME280;10473;42.734;24.258;2023-03-14T01:29:02;91936.81;;;1.71;59.34
20628;BME280;10473;42.734;24.258;2023-03-14T01:31:33;91934.66;;;1.73;59.58
20628;BME280;10473;42.734;24.258;2023-03-14T01:34:01;91934.22;;;1.71;59.50
20628;BME280;10473;42.734;24.258;2023-03-14T01:36:29;91930.84;;;1.62;59.41
20628;BME280;10473;42.734;24.258;2023-03-14T01:38:57;91946.31;;;1.75;58.65
20628;BME280;10473;42.734;24.258;2023-03-14T01:41:25;91942.84;;;1.46;60.43
20628;BME280;10473;42.734;24.258;2023-03-14T01:43:56;91936.22;;;1.57;59.24
20628;BME280;10473;42.734;24.258;2023-03-14T01:46:28;91936.06;;;1.62;59.83
20628;BME280;10473;42.734;24.258;2023-03-14T01:49:07;91935.94;;;1.58;59.58
20628;BME280;10473;42.734;24.258;2023-03-14T01:51:42;91936.97;;;1.57;60.30
20628;BME280;10473;42.734;24.258;2023-03-14T01:54:16;91936.38;;;1.60;59.46
20628;BME280;10473;42.734;24.258;2023-03-14T01:56:50;91931.78;;;1.32;60.50
20628;BME280;10473;42.734;24.258;2023-03-14T01:59:19;91926.88;;;1.38;60.35
20628;BME280;10473;42.734;24.258;2023-03-14T02:01:49;91930.88;;;1.36;60.24
20628;BME280;10473;42.734;24.258;2023-03-14T02:04:19;91929.03;;;1.37;60.54
20628;BME280;10473;42.734;24.258;2023-03-14T02:06:51;91929.31;;;1.43;60.27
20628;BME280;10473;42.734;24.258;2023-03-14T02:09:24;91919.81;;;1.39;59.99
20628;BME280;10473;42.734;24.258;2023-03-14T02:11:52;91924.09;;;1.43;59.62
20628;BME280;10473;42.734;24.258;2023-03-14T02:14:40;91917.22;;;1.39;59.63
20628;BME280;10473;42.734;24.258;2023-03-14T02:17:44;91919.19;;;1.51;59.46
20628;BME280;10473;42.734;24.258;2023-03-14T02:20:35;91919.81;;;1.48;59.92
20628;BME280;10473;42.734;24.258;2023-03-14T02:23:06;91917.06;;;1.44;59.86
20628;BME280;10473;42.734;24.258;2023-03-14T02:25:39;91919.66;;;1.52;59.24
20628;BME280;10473;42.734;24.258;2023-03-14T02:28:11;91925.94;;;1.34;60.42
20628;BME280;10473;42.734;24.258;2023-03-14T02:30:40;91919.50;;;1.41;59.76
20628;BME280;10473;42.734;24.258;2023-03-14T02:33:11;91910.28;;;1.34;60.04
20628;BME280;10473;42.734;24.258;2023-03-14T02:35:46;91920.56;;;1.39;59.84
20628;BME280;10473;42.734;24.258;2023-03-14T02:38:19;91925.63;;;1.44;60.11
20628;BME280;10473;42.734;24.258;2023-03-14T02:40:49;91925.63;;;1.44;59.68
20628;BME280;10473;42.734;24.258;2023-03-14T02:43:19;91928.41;;;1.39;60.24
20628;BME280;10473;42.734;24.258;2023-03-14T02:45:53;91924.13;;;1.35;60.12
20628;BME280;10473;42.734;24.258;2023-03-14T02:48:26;91918.13;;;1.26;61.18
20628;BME280;10473;42.734;24.258;2023-03-14T02:50:56;91917.84;;;1.19;60.74
20628;BME280;10473;42.734;24.258;2023-03-14T02:53:27;91913.97;;;0.99;61.68
20628;BME280;10473;42.734;24.258;2023-03-14T02:55:58;91913.97;;;0.99;61.59
20628;BME280;10473;42.734;24.258;2023-03-14T02:58:29;91910.13;;;0.88;61.87
20628;BME280;10473;42.734;24.258;2023-03-14T03:01:05;91902.91;;;0.85;61.89
20628;BME280;10473;42.734;24.258;2023-03-14T03:03:33;91905.66;;;0.80;62.49
20628;BME280;10473;42.734;24.258;2023-03-14T03:06:01;91905.81;;;0.75;62.02
20628;BME280;10473;42.734;24.258;2023-03-14T03:08:29;91888.00;;;0.43;62.20
20628;BME280;10473;42.734;24.258;2023-03-14T03:10:58;91895.97;;;0.55;62.28
20628;BME280;10473;42.734;24.258;2023-03-14T03:13:30;91883.44;;;0.57;62.08
20628;BME280;10473;42.734;24.258;2023-03-14T03:16:00;91893.22;;;0.60;61.94
20628;BME280;10473;42.734;24.258;2023-03-14T03:18:28;91891.69;;;0.51;62.00
20628;BME280;10473;42.734;24.258;2023-03-14T03:20:59;91884.75;;;0.46;63.25
20628;BME280;10473;42.734;24.258;2023-03-14T03:23:27;91896.63;;;0.61;61.96
20628;BME280;10473;42.734;24.258;2023-03-14T03:25:55;91895.25;;;0.63;61.85
20628;BME280;10473;42.734;24.258;2023-03-14T03:28:22;91890.19;;;0.67;62.68
20628;BME280;10473;42.734;24.258;2023-03-14T03:30:53;91887.41;;;0.63;62.51
20628;BME280;10473;42.734;24.258;2023-03-14T03:33:21;91889.72;;;0.73;62.15
20628;BME280;10473;42.734;24.258;2023-03-14T03:35:51;91880.53;;;0.76;62.15
20628;BME280;10473;42.734;24.258;2023-03-14T03:38:24;91879.31;;;0.82;61.25
20628;BME280;10473;42.734;24.258;2023-03-14T03:40:54;91880.38;;;0.81;60.89
20628;BME280;10473;42.734;24.258;2023-03-14T03:43:24;91879.00;;;0.83;61.43
20628;BME280;10473;42.734;24.258;2023-03-14T03:45:53;91883.91;;;0.93;61.30
20628;BME280;10473;42.734;24.258;2023-03-14T03:48:23;91887.44;;;0.98;60.05
20628;BME280;10473;42.734;24.258;2023-03-14T03:50:51;91889.91;;;0.94;60.87
20628;BME280;10473;42.734;24.258;2023-03-14T03:53:21;91888.69;;;1.00;60.52
20628;BME280;10473;42.734;24.258;2023-03-14T03:55:49;91888.53;;;0.97;60.79
20628;BME280;10473;42.734;24.258;2023-03-14T03:58:17;91883.75;;;0.98;61.80
20628;BME280;10473;42.734;24.258;2023-03-14T04:00:45;91890.97;;;1.10;60.88
20628;BME280;10473;42.734;24.258;2023-03-14T04:03:14;91882.69;;;0.99;61.42
20628;BME280;10473;42.734;24.258;2023-03-14T04:05:41;91880.56;;;1.02;60.85
20628;BME280;10473;42.734;24.258;2023-03-14T04:08:13;91873.78;;;0.75;61.87
20628;BME280;10473;42.734;24.258;2023-03-14T04:10:40;91866.91;;;0.79;61.99
20628;BME280;10473;42.734;24.258;2023-03-14T04:13:16;91880.38;;;0.89;61.46
20628;BME280;10473;42.734;24.258;2023-03-14T04:15:49;91878.25;;;1.00;61.33
20628;BME280;10473;42.734;24.258;2023-03-14T04:18:24;91875.94;;;0.82;61.88
20628;BME280;10473;42.734;24.258;2023-03-14T04:20:52;91882.53;;;0.88;61.61
20628;BME280;10473;42.734;24.258;2023-03-14T04:23:23;91886.06;;;0.92;61.17
20628;BME280;10473;42.734;24.258;2023-03-14T04:25:52;91891.44;;;0.87;61.06
20628;BME280;10473;42.734;24.258;2023-03-14T04:28:21;91881.59;;;0.92;60.70
20628;BME280;10473;42.734;24.258;2023-03-14T04:30:49;91887.59;;;0.93;61.14
20628;BME280;10473;42.734;24.258;2023-03-14T04:33:22;91886.97;;;0.95;60.19
20628;BME280;10473;42.734;24.258;2023-03-14T04:35:53;91879.78;;;0.84;61.86
20628;BME280;10473;42.734;24.258;2023-03-14T04:38:21;91875.63;;;0.92;60.79
20628;BME280;10473;42.734;24.258;2023-03-14T04:40:50;91876.25;;;0.72;62.03
20628;BME280;10473;42.734;24.258;2023-03-14T04:46:37;91878.41;;;0.87;62.17
20628;BME280;10473;42.734;24.258;2023-03-14T04:49:08;91871.19;;;0.92;62.31
20628;BME280;10473;42.734;24.258;2023-03-14T04:51:36;91876.25;;;0.88;61.74
20628;BME280;10473;42.734;24.258;2023-03-14T04:54:03;91875.94;;;0.98;61.06
20628;BME280;10473;42.734;24.258;2023-03-14T04:56:31;91873.16;;;0.78;61.98
20628;BME280;10473;42.734;24.258;2023-03-14T04:59:01;91883.13;;;0.68;62.47
20628;BME280;10473;42.734;24.258;2023-03-14T05:01:30;91886.53;;;0.77;62.25
20628;BME280;10473;42.734;24.258;2023-03-14T05:04:24;91885.59;;;0.98;62.59
20628;BME280;10473;42.734;24.258;2023-03-14T05:07:06;91883.28;;;1.13;62.07
20628;BME280;10473;42.734;24.258;2023-03-14T05:09:54;91887.13;;;1.33;61.49
20628;BME280;10473;42.734;24.258;2023-03-14T05:12:40;91877.09;;;1.61;60.95
20628;BME280;10473;42.734;24.258;2023-03-14T05:15:30;91879.94;;;1.84;60.50
20628;BME280;10473;42.734;24.258;2023-03-14T05:18:09;91879.28;;;2.05;59.64
20628;BME280;10473;42.734;24.258;2023-03-14T05:20:58;91878.75;;;2.20;58.93
20628;BME280;10473;42.734;24.258;2023-03-14T05:23:46;91883.63;;;2.59;58.45
20628;BME280;10473;42.734;24.258;2023-03-14T05:26:34;91886.94;;;2.67;57.44
20628;BME280;10473;42.734;24.258;2023-03-14T05:29:25;91886.19;;;2.88;57.29
20628;BME280;10473;42.734;24.258;2023-03-14T05:32:24;91890.94;;;3.15;56.20
20628;BME280;10473;42.734;24.258;2023-03-14T05:35:03;91892.28;;;3.21;56.57
20628;BME280;10473;42.734;24.258;2023-03-14T05:38:01;91896.28;;;3.39;55.42
20628;BME280;10473;42.734;24.258;2023-03-14T05:40:34;91894.19;;;3.53;55.48
20628;BME280;10473;42.734;24.258;2023-03-14T05:43:38;91885.38;;;3.37;54.89
20628;BME280;10473;42.734;24.258;2023-03-14T05:46:41;91886.56;;;3.60;55.19
20628;BME280;10473;42.734;24.258;2023-03-14T05:49:32;91884.59;;;3.89;54.96
20628;BME280;10473;42.734;24.258;2023-03-14T05:52:32;91885.16;;;4.19;55.28
20628;BME280;10473;42.734;24.258;2023-03-14T05:55:25;91884.13;;;4.56;53.99
20628;BME280;10473;42.734;24.258;2023-03-14T05:58:10;91886.59;;;4.88;54.44
20628;BME280;10473;42.734;24.258;2023-03-14T06:01:04;91877.69;;;5.17;52.85
20628;BME280;10473;42.734;24.258;2023-03-14T06:03:53;91887.59;;;5.63;51.63
20628;BME280;10473;42.734;24.258;2023-03-14T06:06:21;91883.06;;;5.75;51.60
20628;BME280;10473;42.734;24.258;2023-03-14T06:08:48;91881.38;;;5.95;50.86
20628;BME280;10473;42.734;24.258;2023-03-14T06:11:18;91886.81;;;6.17;50.80
20628;BME280;10473;42.734;24.258;2023-03-14T06:13:46;91890.06;;;6.42;49.62
20628;BME280;10473;42.734;24.258;2023-03-14T06:16:14;91879.78;;;6.68;49.41
20628;BME280;10473;42.734;24.258;2023-03-14T06:18:42;91886.66;;;6.88;49.65
20628;BME280;10473;42.734;24.258;2023-03-14T06:21:13;91883.81;;;7.12;48.79
20628;BME280;10473;42.734;24.258;2023-03-14T06:23:41;91875.78;;;7.43;47.24
20628;BME280;10473;42.734;24.258;2023-03-14T06:26:10;91879.97;;;7.63;46.44
20628;BME280;10473;42.734;24.258;2023-03-14T06:28:40;91867.53;;;7.82;46.38
20628;BME280;10473;42.734;24.258;2023-03-14T06:31:08;91871.34;;;7.85;44.25
20628;BME280;10473;42.734;24.258;2023-03-14T06:33:45;91855.09;;;8.02;43.20
20628;BME280;10473;42.734;24.258;2023-03-14T06:36:12;91861.84;;;8.41;43.17
20628;BME280;10473;42.734;24.258;2023-03-14T06:38:43;91848.59;;;8.60;42.73
20628;BME280;10473;42.734;24.258;2023-03-14T06:41:10;91857.56;;;9.04;41.66
20628;BME280;10473;42.734;24.258;2023-03-14T06:43:42;91855.28;;;9.32;40.83
20628;BME280;10473;42.734;24.258;2023-03-14T06:46:11;91860.41;;;9.47;39.74
20628;BME280;10473;42.734;24.258;2023-03-14T06:48:41;91850.09;;;9.68;39.66
20628;BME280;10473;42.734;24.258;2023-03-14T06:51:09;91850.09;;;9.39;40.46
20628;BME280;10473;42.734;24.258;2023-03-14T06:53:36;91846.66;;;10.01;40.70
20628;BME280;10473;42.734;24.258;2023-03-14T06:56:06;91848.84;;;10.25;40.10
20628;BME280;10473;42.734;24.258;2023-03-14T06:58:34;91842.81;;;10.68;38.09
20628;BME280;10473;42.734;24.258;2023-03-14T07:01:17;91842.28;;;11.02;37.29
20628;BME280;10473;42.734;24.258;2023-03-14T07:03:47;91841.00;;;11.36;36.69
20628;BME280;10473;42.734;24.258;2023-03-14T07:06:15;91849.44;;;11.52;36.69
20628;BME280;10473;42.734;24.258;2023-03-14T07:08:42;91848.84;;;11.80;37.58
20628;BME280;10473;42.734;24.258;2023-03-14T07:11:10;91847.63;;;11.67;36.87
20628;BME280;10473;42.734;24.258;2023-03-14T07:13:38;91846.63;;;11.99;37.33
20628;BME280;10473;42.734;24.258;2023-03-14T07:16:09;91846.69;;;12.20;36.64
20628;BME280;10473;42.734;24.258;2023-03-14T07:18:37;91841.06;;;12.50;36.21
20628;BME280;10473;42.734;24.258;2023-03-14T07:21:06;91838.44;;;12.67;35.08
20628;BME280;10473;42.734;24.258;2023-03-14T07:23:36;91839.97;;;12.93;35.29
20628;BME280;10473;42.734;24.258;2023-03-14T07:26:04;91825.53;;;13.18;35.01
20628;BME280;10473;42.734;24.258;2023-03-14T07:28:33;91823.97;;;13.35;35.05
20628;BME280;10473;42.734;24.258;2023-03-14T07:31:10;91820.56;;;13.17;34.24
20628;BME280;10473;42.734;24.258;2023-03-14T07:33:39;91815.56;;;13.54;34.24
20628;BME280;10473;42.734;24.258;2023-03-14T07:36:08;91817.72;;;13.94;32.70
20628;BME280;10473;42.734;24.258;2023-03-14T07:38:35;91817.66;;;14.08;32.84
20628;BME280;10473;42.734;24.258;2023-03-14T07:41:27;91816.81;;;14.32;33.13
20628;BME280;10473;42.734;24.258;2023-03-14T07:44:32;91818.25;;;14.47;33.60
20628;BME280;10473;42.734;24.258;2023-03-14T07:47:01;91814.78;;;14.50;32.58
20628;BME280;10473;42.734;24.258;2023-03-14T07:49:29;91813.75;;;14.33;32.22
20628;BME280;10473;42.734;24.258;2023-03-14T07:51:57;91815.34;;;14.82;32.41
20628;BME280;10473;42.734;24.258;2023-03-14T07:54:25;91816.97;;;15.13;33.53
20628;BME280;10473;42.734;24.258;2023-03-14T07:56:53;91809.97;;;15.29;32.95
20628;BME280;10473;42.734;24.258;2023-03-14T07:59:20;91812.59;;;15.40;31.81
20628;BME280;10473;42.734;24.258;2023-03-14T08:01:48;91815.97;;;16.11;30.64
20628;BME280;10473;42.734;24.258;2023-03-14T08:04:17;91809.41;;;15.85;30.02
20628;BME280;10473;42.734;24.258;2023-03-14T08:06:45;91796.75;;;16.23;31.00
20628;BME280;10473;42.734;24.258;2023-03-14T08:09:14;91810.59;;;16.14;28.94
20628;BME280;10473;42.734;24.258;2023-03-14T08:11:42;91808.06;;;16.64;29.28
20628;BME280;10473;42.734;24.258;2023-03-14T08:14:09;91811.25;;;16.82;28.60
20628;BME280;10473;42.734;24.258;2023-03-14T08:16:37;91802.56;;;16.74;28.21
20628;BME280;10473;42.734;24.258;2023-03-14T08:19:05;91804.78;;;17.02;28.02
20628;BME280;10473;42.734;24.258;2023-03-14T08:21:34;91795.53;;;17.30;28.32
20628;BME280;10473;42.734;24.258;2023-03-14T08:24:02;91804.25;;;17.99;26.99
20628;BME280;10473;42.734;24.258;2023-03-14T08:26:29;91798.00;;;18.45;26.07
20628;BME280;10473;42.734;24.258;2023-03-14T08:28:57;91792.47;;;18.68;26.85
20628;BME280;10473;42.734;24.258;2023-03-14T08:31:25;91790.44;;;18.91;26.22
20628;BME280;10473;42.734;24.258;2023-03-14T08:33:53;91783.13;;;19.08;26.00
20628;BME280;10473;42.734;24.258;2023-03-14T08:36:21;91775.41;;;19.42;26.09
20628;BME280;10473;42.734;24.258;2023-03-14T08:38:50;91767.72;;;19.28;25.19
20628;BME280;10473;42.734;24.258;2023-03-14T08:41:17;91765.00;;;19.12;23.65
20628;BME280;10473;42.734;24.258;2023-03-14T08:43:45;91765.63;;;19.64;24.52
20628;BME280;10473;42.734;24.258;2023-03-14T08:46:13;91764.44;;;19.93;24.82
20628;BME280;10473;42.734;24.258;2023-03-14T08:48:43;91761.88;;;20.02;22.77
20628;BME280;10473;42.734;24.258;2023-03-14T08:51:12;91766.69;;;20.23;24.54
20628;BME280;10473;42.734;24.258;2023-03-14T08:53:40;91765.00;;;20.01;24.14
20628;BME280;10473;42.734;24.258;2023-03-14T08:56:10;91759.97;;;20.56;24.18
20628;BME280;10473;42.734;24.258;2023-03-14T08:58:38;91759.97;;;20.81;24.13
20628;BME280;10473;42.734;24.258;2023-03-14T09:01:07;91750.41;;;21.05;24.21
20628;BME280;10473;42.734;24.258;2023-03-14T09:03:35;91759.78;;;20.63;23.54
20628;BME280;10473;42.734;24.258;2023-03-14T09:06:04;91761.66;;;20.25;23.81
20628;BME280;10473;42.734;24.258;2023-03-14T09:08:32;91760.53;;;19.82;24.32
20628;BME280;10473;42.734;24.258;2023-03-14T09:10:59;91761.19;;;19.86;24.74
20628;BME280;10473;42.734;24.258;2023-03-14T09:13:29;91763.50;;;19.27;25.70
20628;BME280;10473;42.734;24.258;2023-03-14T09:15:56;91761.44;;;19.47;25.56
20628;BME280;10473;42.734;24.258;2023-03-14T09:18:24;91759.69;;;19.56;25.60
20628;BME280;10473;42.734;24.258;2023-03-14T09:20:52;91756.84;;;19.47;25.76
20628;BME280;10473;42.734;24.258;2023-03-14T09:23:19;91753.63;;;19.81;25.28
20628;BME280;10473;42.734;24.258;2023-03-14T09:25:47;91763.94;;;19.70;24.97
20628;BME280;10473;42.734;24.258;2023-03-14T09:28:15;91756.44;;;19.49;25.27
20628;BME280;10473;42.734;24.258;2023-03-14T09:30:44;91752.72;;;19.59;26.04
20628;BME280;10473;42.734;24.258;2023-03-14T09:33:12;91746.81;;;19.64;25.03
20628;BME280;10473;42.734;24.258;2023-03-14T09:35:39;91737.72;;;19.13;25.49
20628;BME280;10473;42.734;24.258;2023-03-14T09:38:07;91742.50;;;19.38;25.25
20628;BME280;10473;42.734;24.258;2023-03-14T09:40:36;91735.53;;;19.69;25.24
20628;BME280;10473;42.734;24.258;2023-03-14T09:43:05;91739.81;;;20.36;24.93
20628;BME280;10473;42.734;24.258;2023-03-14T09:45:34;91732.94;;;20.60;23.18
20628;BME280;10473;42.734;24.258;2023-03-14T09:48:05;91728.31;;;21.10;23.71
20628;BME280;10473;42.734;24.258;2023-03-14T09:50:37;91726.97;;;21.27;23.32
20628;BME280;10473;42.734;24.258;2023-03-14T09:53:09;91717.00;;;21.49;22.26
20628;BME280;10473;42.734;24.258;2023-03-14T09:55:42;91712.50;;;21.68;22.96
20628;BME280;10473;42.734;24.258;2023-03-14T09:58:12;91705.75;;;21.85;22.17
20628;BME280;10473;42.734;24.258;2023-03-14T10:00:40;91701.06;;;21.76;22.89
20628;BME280;10473;42.734;24.258;2023-03-14T10:03:22;91701.94;;;21.95;23.80
20628;BME280;10473;42.734;24.258;2023-03-14T10:05:50;91703.50;;;22.05;21.77
20628;BME280;10473;42.734;24.258;2023-03-14T10:08:18;91694.09;;;21.32;22.65
20628;BME280;10473;42.734;24.258;2023-03-14T10:10:45;91696.31;;;20.75;23.33
20628;BME280;10473;42.734;24.258;2023-03-14T10:13:15;91692.66;;;20.94;22.48
20628;BME280;10473;42.734;24.258;2023-03-14T10:15:48;91689.81;;;20.85;24.05
20628;BME280;10473;42.734;24.258;2023-03-14T10:18:17;91685.00;;;20.30;23.26
20628;BME280;10473;42.734;24.258;2023-03-14T10:20:46;91684.69;;;20.78;22.98
20628;BME280;10473;42.734;24.258;2023-03-14T10:23:27;91663.16;;;20.53;23.19
20628;BME280;10473;42.734;24.258;2023-03-14T10:26:05;91669.59;;;20.93;23.77
20628;BME280;10473;42.734;24.258;2023-03-14T10:28:38;91671.31;;;20.87;22.64
20628;BME280;10473;42.734;24.258;2023-03-14T10:31:06;91665.50;;;21.01;23.61
20628;BME280;10473;42.734;24.258;2023-03-14T10:33:37;91658.09;;;20.42;23.11
20628;BME280;10473;42.734;24.258;2023-03-14T10:36:17;91656.25;;;20.77;23.21
20628;BME280;10473;42.734;24.258;2023-03-14T10:38:47;91649.03;;;20.74;22.85
20628;BME280;10473;42.734;24.258;2023-03-14T10:41:17;91645.91;;;20.75;23.77
20628;BME280;10473;42.734;24.258;2023-03-14T10:43:50;91642.56;;;19.96;24.00
20628;BME280;10473;42.734;24.258;2023-03-14T10:46:19;91639.06;;;20.37;23.82
20628;BME280;10473;42.734;24.258;2023-03-14T10:49:16;91631.63;;;20.28;24.32
20628;BME280;10473;42.734;24.258;2023-03-14T10:51:50;91619.28;;;19.24;25.17
20628;BME280;10473;42.734;24.258;2023-03-14T10:54:20;91607.22;;;19.00;25.65
20628;BME280;10473;42.734;24.258;2023-03-14T10:56:56;91611.41;;;19.01;25.73
20628;BME280;10473;42.734;24.258;2023-03-14T10:59:24;91596.91;;;18.70;25.98
20628;BME280;10473;42.734;24.258;2023-03-14T11:01:57;91585.75;;;18.71;26.32
20628;BME280;10473;42.734;24.258;2023-03-14T11:04:41;91582.81;;;18.18;25.86
20628;BME280;10473;42.734;24.258;2023-03-14T11:07:15;91573.03;;;18.43;25.95
20628;BME280;10473;42.734;24.258;2023-03-14T11:09:56;91569.56;;;18.59;26.07
20628;BME280;10473;42.734;24.258;2023-03-14T11:12:43;91557.19;;;18.33;25.84
20628;BME280;10473;42.734;24.258;2023-03-14T11:15:18;91542.94;;;18.20;26.71
20628;BME280;10473;42.734;24.258;2023-03-14T11:17:57;91546.09;;;17.83;26.85
20628;BME280;10473;42.734;24.258;2023-03-14T11:20:35;91543.00;;;17.84;27.53
20628;BME280;10473;42.734;24.258;2023-03-14T11:23:13;91537.88;;;17.74;27.23
20628;BME280;10473;42.734;24.258;2023-03-14T11:25:47;91532.63;;;18.02;27.02
20628;BME280;10473;42.734;24.258;2023-03-14T11:28:23;91530.66;;;18.19;28.75
20628;BME280;10473;42.734;24.258;2023-03-14T11:30:53;91522.16;;;18.40;27.44
20628;BME280;10473;42.734;24.258;2023-03-14T11:33:25;91513.22;;;18.59;28.01
20628;BME280;10473;42.734;24.258;2023-03-14T11:35:59;91509.22;;;18.19;27.86
20628;BME280;10473;42.734;24.258;2023-03-14T11:38:35;91506.47;;;18.38;27.39
20628;BME280;10473;42.734;24.258;2023-03-14T11:41:10;91501.25;;;18.15;27.94
20628;BME280;10473;42.734;24.258;2023-03-14T11:43:40;91494.22;;;18.05;26.80
20628;BME280;10473;42.734;24.258;2023-03-14T11:46:13;91486.09;;;18.25;28.42
20628;BME280;10473;42.734;24.258;2023-03-14T11:48:45;91481.00;;;18.14;27.24
20628;BME280;10473;42.734;24.258;2023-03-14T11:51:21;91474.69;;;18.21;26.86
20628;BME280;10473;42.734;24.258;2023-03-14T11:53:55;91468.66;;;18.33;28.07
20628;BME280;10473;42.734;24.258;2023-03-14T11:56:31;91468.94;;;18.51;27.14
20628;BME280;10473;42.734;24.258;2023-03-14T11:59:05;91468.16;;;18.22;26.25
20628;BME280;10473;42.734;24.258;2023-03-14T12:01:53;91463.69;;;18.31;25.99
20628;BME280;10473;42.734;24.258;2023-03-14T12:04:49;91465.97;;;18.33;27.21
20628;BME280;10473;42.734;24.258;2023-03-14T12:07:21;91457.00;;;18.23;27.10
20628;BME280;10473;42.734;24.258;2023-03-14T12:09:52;91441.28;;;18.09;27.93
20628;BME280;10473;42.734;24.258;2023-03-14T12:12:22;91445.66;;;17.87;27.37
20628;BME280;10473;42.734;24.258;2023-03-14T12:14:54;91437.75;;;17.96;27.58
20628;BME280;10473;42.734;24.258;2023-03-14T12:17:25;91440.84;;;18.11;27.94
20628;BME280;10473;42.734;24.258;2023-03-14T12:20:03;91428.69;;;18.22;28.88
20628;BME280;10473;42.734;24.258;2023-03-14T12:22:36;91426.53;;;18.17;28.75
20628;BME280;10473;42.734;24.258;2023-03-14T12:25:15;91424.78;;;18.11;26.96
20628;BME280;10473;42.734;24.258;2023-03-14T12:28:02;91427.72;;;18.00;27.53
20628;BME280;10473;42.734;24.258;2023-03-14T12:30:32;91417.84;;;17.97;27.84
20628;BME280;10473;42.734;24.258;2023-03-14T12:33:31;91422.97;;;17.76;27.88
20628;BME280;10473;42.734;24.258;2023-03-14T12:36:18;91409.66;;;17.56;28.22
20628;BME280;10473;42.734;24.258;2023-03-14T12:38:56;91404.34;;;17.21;29.03
20628;BME280;10473;42.734;24.258;2023-03-14T12:41:29;91393.38;;;16.99;28.52
20628;BME280;10473;42.734;24.258;2023-03-14T12:47:41;91388.94;;;16.18;29.67
20628;BME280;10473;42.734;24.258;2023-03-14T12:50:20;91374.38;;;15.80;29.79
20628;BME280;10473;42.734;24.258;2023-03-14T12:53:10;91380.69;;;15.90;31.08
20628;BME280;10473;42.734;24.258;2023-03-14T12:55:47;91376.97;;;15.64;30.94
20628;BME280;10473;42.734;24.258;2023-03-14T12:58:21;91376.88;;;15.68;31.16
20628;BME280;10473;42.734;24.258;2023-03-14T13:00:58;91375.84;;;15.85;31.67
20628;BME280;10473;42.734;24.258;2023-03-14T13:03:37;91375.13;;;15.81;30.68
20628;BME280;10473;42.734;24.258;2023-03-14T13:06:09;91367.75;;;15.69;30.76
20628;BME280;10473;42.734;24.258;2023-03-14T13:08:40;91359.72;;;15.69;31.17
20628;BME280;10473;42.734;24.258;2023-03-14T13:11:12;91361.81;;;15.58;30.23
20628;BME280;10473;42.734;24.258;2023-03-14T13:13:46;91360.31;;;15.57;30.94
20628;BME280;10473;42.734;24.258;2023-03-14T13:16:17;91354.25;;;15.53;31.44
20628;BME280;10473;42.734;24.258;2023-03-14T13:18:47;91352.50;;;15.46;31.58
20628;BME280;10473;42.734;24.258;2023-03-14T13:21:17;91344.66;;;15.36;31.80
20628;BME280;10473;42.734;24.258;2023-03-14T13:23:57;91341.25;;;15.09;32.50
20628;BME280;10473;42.734;24.258;2023-03-14T13:26:34;91338.59;;;15.09;31.54
20628;BME280;10473;42.734;24.258;2023-03-14T13:29:09;91339.50;;;14.76;31.87
20628;BME280;10473;42.734;24.258;2023-03-14T13:31:43;91333.53;;;14.65;32.33